Time;durP1;ratioP1;P1;durP2;ratioP2;P2;SDS_P1;SDS_P2;PMS_P1;PMS_P2;Temp;Humidity;BMP_temperature;BMP_pressure;BME280_temperature;BME280_humidity;BME280_pressure;Samples;Min_cycle;Max_cycle;Signal;HPM_P1;HPM_P2
2023/05/13 00:00:16;;;;;;;10.20;9.77;;;9.80;99.90;;;;;;5102157;27;20517;-68
2023/05/13 00:02:44;;;;;;;8.53;8.23;;;9.80;99.90;;;;;;5108168;27;20951;-70
2023/05/13 00:05:11;;;;;;;10.57;10.17;;;9.80;99.90;;;;;;5110316;28;20453;-70
2023/05/13 00:07:40;;;;;;;8.20;7.90;;;9.80;99.90;;;;;;5107944;28;20469;-70
2023/05/13 00:10:10;;;;;;;8.53;8.23;;;9.80;99.90;;;;;;5103065;27;20495;-69
2023/05/13 00:12:37;;;;;;;8.20;7.90;;;9.80;99.90;;;;;;5105775;27;20604;-70
2023/05/13 00:15:05;;;;;;;8.00;7.70;;;9.80;99.90;;;;;;5111177;28;21084;-69
2023/05/13 00:17:31;;;;;;;8.73;8.43;;;9.80;99.90;;;;;;5105136;27;20560;-69
2023/05/13 00:19:58;;;;;;;8.63;8.33;;;9.70;99.90;;;;;;5108904;28;20550;-71
2023/05/13 00:22:25;;;;;;;9.90;9.50;;;9.60;99.90;;;;;;5099014;27;20464;-70
2023/05/13 00:24:52;;;;;;;9.30;9.00;;;9.50;99.90;;;;;;5108049;28;20465;-70
2023/05/13 00:27:20;;;;;;;9.23;8.93;;;9.40;99.90;;;;;;5108396;27;21098;-70
2023/05/13 00:29:48;;;;;;;9.33;9.03;;;9.40;99.90;;;;;;5110794;28;20503;-69
2023/05/13 00:32:14;;;;;;;9.80;9.50;;;9.50;99.90;;;;;;5101817;27;20958;-70
2023/05/13 00:34:42;;;;;;;8.93;8.63;;;9.60;99.90;;;;;;5103436;27;20543;-70
2023/05/13 00:37:10;;;;;;;9.00;8.70;;;9.60;99.90;;;;;;5113685;28;20955;-70
2023/05/13 00:39:37;;;;;;;8.73;8.43;;;9.50;99.90;;;;;;5107241;27;20621;-69
2023/05/13 00:42:05;;;;;;;8.33;8.03;;;9.50;99.90;;;;;;5106297;27;20964;-70
2023/05/13 00:44:33;;;;;;;8.20;7.90;;;9.50;99.90;;;;;;5098712;27;20977;-70
2023/05/13 00:47:00;;;;;;;8.63;8.33;;;9.40;99.90;;;;;;5095563;27;20468;-70
2023/05/13 00:49:27;;;;;;;17.47;12.90;;;9.30;99.90;;;;;;5108618;28;20857;-70
2023/05/13 00:51:55;;;;;;;8.37;8.07;;;9.30;99.90;;;;;;5099630;27;20465;-69
2023/05/13 00:54:21;;;;;;;7.70;7.50;;;9.40;99.90;;;;;;5107990;28;20902;-70
2023/05/13 00:56:53;;;;;;;8.00;7.70;;;9.60;99.90;;;;;;5099237;27;20465;-70
2023/05/13 00:59:20;;;;;;;7.93;7.63;;;9.50;99.90;;;;;;5110971;28;20475;-70
2023/05/13 01:01:56;;;;;;;7.40;7.20;;;9.50;99.90;;;;;;5102617;27;20852;-69
2023/05/13 01:04:29;;;;;;;7.90;7.60;;;9.40;99.90;;;;;;5099318;27;20464;-69
2023/05/13 01:07:07;;;;;;;8.47;8.17;;;9.30;99.90;;;;;;5107441;27;20457;-69
2023/05/13 01:09:42;;;;;;;8.97;8.67;;;9.40;99.90;;;;;;5102542;28;20878;-69
2023/05/13 01:12:15;;;;;;;7.77;7.50;;;9.30;99.90;;;;;;5110356;28;20472;-69
2023/05/13 01:14:52;;;;;;;8.23;7.93;;;9.30;99.90;;;;;;5099830;27;20511;-69
2023/05/13 01:17:33;;;;;;;7.40;7.20;;;9.30;99.90;;;;;;5101879;27;20465;-69
2023/05/13 01:20:02;;;;;;;9.93;9.53;;;9.30;99.90;;;;;;5101843;28;20460;-69
2023/05/13 01:22:31;;;;;;;8.27;7.97;;;9.40;99.90;;;;;;5104436;27;20457;-69
2023/05/13 01:24:57;;;;;;;8.97;8.67;;;9.40;99.90;;;;;;5109120;28;20484;-69
2023/05/13 01:27:25;;;;;;;8.90;8.60;;;9.40;99.90;;;;;;5095989;28;20466;-67
2023/05/13 01:29:53;;;;;;;8.60;8.30;;;9.40;99.90;;;;;;5101274;28;20484;-69
2023/05/13 01:32:21;;;;;;;8.90;8.60;;;9.40;99.90;;;;;;5097678;28;20460;-70
2023/05/13 01:34:49;;;;;;;8.57;8.27;;;9.40;99.90;;;;;;5098202;28;20474;-69
2023/05/13 01:37:16;;;;;;;9.93;9.60;;;9.40;99.90;;;;;;5099553;27;20464;-68
2023/05/13 01:39:46;;;;;;;8.10;7.80;;;9.30;99.90;;;;;;5105634;27;20480;-69
2023/05/13 01:42:13;;;;;;;8.40;8.10;;;9.20;99.90;;;;;;5096290;28;20458;-69
2023/05/13 01:44:40;;;;;;;8.97;8.67;;;9.00;99.90;;;;;;5091535;28;20526;-69
2023/05/13 01:47:07;;;;;;;8.50;8.20;;;8.90;99.90;;;;;;5103896;28;20463;-69
2023/05/13 01:49:35;;;;;;;9.03;8.73;;;8.80;99.90;;;;;;5101977;27;20492;-69
2023/05/13 01:52:03;;;;;;;8.47;8.17;;;8.90;99.90;;;;;;5099642;27;20474;-69
2023/05/13 01:54:30;;;;;;;8.80;8.50;;;8.90;99.90;;;;;;5107008;28;20459;-69
2023/05/13 01:56:58;;;;;;;8.00;7.70;;;8.80;99.90;;;;;;5090615;28;20470;-69
2023/05/13 01:59:25;;;;;;;8.23;7.93;;;8.70;99.90;;;;;;5103766;28;20461;-69
2023/05/13 02:01:53;;;;;;;8.60;8.30;;;8.70;99.90;;;;;;5107568;28;20889;-69
2023/05/13 02:04:20;;;;;;;8.20;7.90;;;8.70;99.90;;;;;;5098498;27;20488;-68
2023/05/13 02:06:48;;;;;;;8.90;8.60;;;8.60;99.90;;;;;;5100423;27;20884;-69
2023/05/13 02:09:15;;;;;;;8.63;8.33;;;8.70;99.90;;;;;;5101765;27;20987;-69
2023/05/13 02:11:42;;;;;;;8.80;8.50;;;8.70;99.90;;;;;;5100976;27;20993;-69
2023/05/13 02:14:11;;;;;;;9.13;8.83;;;8.80;99.90;;;;;;5103551;27;20465;-69
2023/05/13 02:16:38;;;;;;;9.27;8.97;;;8.80;99.90;;;;;;5107762;28;20453;-69
2023/05/13 02:19:05;;;;;;;8.60;8.30;;;8.90;99.90;;;;;;5094664;27;20526;-69
2023/05/13 02:21:32;;;;;;;8.73;8.43;;;9.00;99.90;;;;;;5097843;27;20450;-69
2023/05/13 02:24:00;;;;;;;8.50;8.20;;;9.00;99.90;;;;;;5101316;28;20453;-69
2023/05/13 02:26:27;;;;;;;8.17;7.87;;;9.00;99.90;;;;;;5102636;27;20557;-69
2023/05/13 02:28:54;;;;;;;8.23;7.93;;;9.10;99.90;;;;;;5101454;28;20530;-68
2023/05/13 02:31:22;;;;;;;7.97;7.67;;;9.00;99.90;;;;;;5107768;28;20907;-69
2023/05/13 02:33:50;;;;;;;8.70;8.40;;;9.10;99.90;;;;;;5101329;28;20461;-69
2023/05/13 02:36:17;;;;;;;8.23;7.93;;;9.10;99.90;;;;;;5102859;28;20466;-70
2023/05/13 02:38:43;;;;;;;8.67;8.37;;;9.00;99.90;;;;;;5098316;27;20999;-69
2023/05/13 02:41:10;;;;;;;8.30;8.00;;;9.00;99.90;;;;;;5102120;27;20509;-68
2023/05/13 02:43:37;;;;;;;8.20;7.90;;;9.00;99.90;;;;;;5100833;28;20458;-68
2023/05/13 02:46:04;;;;;;;8.60;8.30;;;9.00;99.90;;;;;;5096605;28;20454;-68
2023/05/13 02:48:32;;;;;;;8.70;8.40;;;8.90;99.90;;;;;;5103454;28;21199;-69
2023/05/13 02:51:00;;;;;;;8.57;8.27;;;8.90;99.90;;;;;;5101619;27;20569;-69
2023/05/13 02:53:26;;;;;;;8.23;7.93;;;8.90;99.90;;;;;;5102941;28;20768;-69
2023/05/13 02:55:54;;;;;;;8.23;7.93;;;8.80;99.90;;;;;;5104998;28;20470;-69
2023/05/13 02:58:21;;;;;;;8.60;8.30;;;8.80;99.90;;;;;;5098915;28;20881;-69
2023/05/13 03:00:48;;;;;;;9.47;9.17;;;8.80;99.90;;;;;;5096797;28;20457;-68
2023/05/13 03:03:15;;;;;;;8.73;8.43;;;8.80;99.90;;;;;;5095378;28;20461;-69
2023/05/13 03:05:43;;;;;;;8.33;8.03;;;8.80;99.90;;;;;;5106110;28;20482;-68
2023/05/13 03:08:10;;;;;;;8.30;8.00;;;8.80;99.90;;;;;;5097030;28;20465;-68
2023/05/13 03:10:38;;;;;;;7.70;7.40;;;8.70;99.90;;;;;;5100233;28;20492;-68
2023/05/13 03:13:05;;;;;;;8.10;7.80;;;8.70;99.90;;;;;;5101608;28;20469;-68
2023/05/13 03:15:31;;;;;;;7.40;7.20;;;8.70;99.90;;;;;;5103754;28;20459;-69
2023/05/13 03:17:58;;;;;;;8.10;7.80;;;8.60;99.90;;;;;;5097041;28;20516;-68
2023/05/13 03:20:25;;;;;;;7.30;7.10;;;8.60;99.90;;;;;;5103246;28;20876;-69
2023/05/13 03:22:54;;;;;;;7.63;7.40;;;8.60;99.90;;;;;;5102958;28;20452;-69
2023/05/13 03:25:22;;;;;;;7.90;7.60;;;8.60;99.90;;;;;;5103272;28;20464;-68
2023/05/13 03:27:49;;;;;;;7.87;7.57;;;8.60;99.90;;;;;;5104902;28;20471;-69
2023/05/13 03:30:17;;;;;;;7.63;7.40;;;8.70;99.90;;;;;;5103376;28;20944;-69
2023/05/13 03:32:43;;;;;;;7.00;6.80;;;8.80;99.90;;;;;;5101718;28;20843;-69
2023/05/13 03:35:10;;;;;;;7.80;7.50;;;8.90;99.90;;;;;;5103157;28;20774;-69
2023/05/13 03:37:38;;;;;;;7.87;7.57;;;8.90;99.90;;;;;;5104189;28;20835;-68
2023/05/13 03:40:08;;;;;;;7.73;7.43;;;8.90;99.90;;;;;;5107498;28;20475;-69
2023/05/13 03:42:35;;;;;;;7.17;6.97;;;8.90;99.90;;;;;;5105391;28;20453;-69
2023/05/13 03:45:01;;;;;;;7.90;7.60;;;8.90;99.90;;;;;;5096273;28;20460;-70
2023/05/13 03:47:29;;;;;;;8.33;8.03;;;9.00;99.90;;;;;;5100262;28;20461;-70
2023/05/13 03:49:57;;;;;;;7.70;7.47;;;9.00;99.90;;;;;;5095931;28;20478;-68
2023/05/13 03:52:23;;;;;;;10.70;10.17;;;9.00;99.90;;;;;;5099455;28;20470;-68
2023/05/13 03:54:50;;;;;;;8.37;8.07;;;9.10;99.90;;;;;;5101660;28;20457;-68
2023/05/13 03:57:18;;;;;;;7.90;7.60;;;9.20;99.90;;;;;;5101075;28;20464;-69
2023/05/13 03:59:46;;;;;;;7.53;7.30;;;9.30;99.90;;;;;;5105281;28;20449;-68
2023/05/13 04:02:13;;;;;;;7.73;7.43;;;9.30;99.90;;;;;;5099345;28;20468;-68
2023/05/13 04:04:40;;;;;;;7.80;7.50;;;9.30;99.90;;;;;;5099129;28;20456;-69
2023/05/13 04:07:07;;;;;;;8.50;8.20;;;9.20;99.90;;;;;;5108248;28;20461;-68
2023/05/13 04:09:34;;;;;;;8.10;7.80;;;9.30;99.90;;;;;;5106293;28;20530;-69
2023/05/13 04:12:02;;;;;;;7.77;7.47;;;9.20;99.90;;;;;;5107399;28;20453;-69
2023/05/13 04:14:31;;;;;;;7.60;7.40;;;9.20;99.90;;;;;;5104042;28;21054;-69
2023/05/13 04:16:59;;;;;;;7.90;7.60;;;9.30;99.90;;;;;;5100876;28;20519;-69
2023/05/13 04:19:26;;;;;;;7.80;7.50;;;9.40;99.90;;;;;;5102847;27;20483;-69
2023/05/13 04:21:53;;;;;;;7.93;7.63;;;9.50;99.90;;;;;;5102705;28;20819;-67
2023/05/13 04:24:20;;;;;;;7.90;7.60;;;9.60;99.90;;;;;;5097694;28;20943;-69
2023/05/13 04:26:49;;;;;;;7.33;7.13;;;9.80;99.90;;;;;;5099915;28;20473;-68
2023/05/13 04:29:16;;;;;;;7.00;6.80;;;9.90;99.90;;;;;;5106850;27;20851;-69
2023/05/13 04:31:46;;;;;;;7.60;7.37;;;9.90;99.90;;;;;;5106516;28;20518;-68
2023/05/13 04:34:13;;;;;;;7.80;7.50;;;10.00;99.90;;;;;;5103779;27;20469;-69
2023/05/13 04:36:40;;;;;;;7.83;7.53;;;10.10;99.90;;;;;;5100349;27;20470;-68
2023/05/13 04:39:09;;;;;;;8.30;8.00;;;10.20;99.90;;;;;;5094509;28;20453;-69
2023/05/13 04:41:36;;;;;;;8.00;7.70;;;10.20;99.90;;;;;;5097837;27;20550;-69
2023/05/13 04:44:05;;;;;;;8.03;7.73;;;10.30;99.90;;;;;;5103763;27;20958;-68
2023/05/13 04:46:31;;;;;;;8.60;8.30;;;10.40;99.90;;;;;;5099686;27;21497;-69
2023/05/13 04:48:59;;;;;;;8.30;8.00;;;10.40;99.90;;;;;;5106192;27;20987;-69
2023/05/13 04:51:26;;;;;;;8.40;8.10;;;10.50;99.90;;;;;;5111185;28;20491;-69
2023/05/13 04:53:53;;;;;;;8.37;8.07;;;10.50;99.90;;;;;;5106958;27;20462;-69
2023/05/13 04:56:21;;;;;;;8.17;7.87;;;10.60;99.90;;;;;;5104910;28;20800;-69
2023/05/13 04:58:48;;;;;;;8.03;7.73;;;10.60;99.90;;;;;;5099832;28;20484;-66
2023/05/13 05:01:14;;;;;;;8.27;7.97;;;10.70;99.90;;;;;;5099068;27;20472;-69
2023/05/13 05:03:41;;;;;;;7.90;7.60;;;10.90;99.90;;;;;;5104446;27;21109;-69
2023/05/13 05:06:10;;;;;;;8.00;7.70;;;11.00;99.90;;;;;;5106182;28;20473;-70
2023/05/13 05:08:38;;;;;;;7.37;7.17;;;11.10;99.90;;;;;;5103793;28;20464;-69
2023/05/13 05:11:05;;;;;;;7.00;6.80;;;11.30;99.90;;;;;;5108577;28;20480;-69
2023/05/13 05:13:32;;;;;;;8.07;7.77;;;11.50;99.90;;;;;;5107337;28;20468;-69
2023/05/13 05:15:58;;;;;;;7.00;6.80;;;11.70;99.90;;;;;;5102875;27;20894;-69
2023/05/13 05:18:26;;;;;;;9.47;9.07;;;11.80;99.90;;;;;;5105864;27;20562;-69
2023/05/13 05:20:53;;;;;;;8.10;7.80;;;11.90;99.90;;;;;;5110316;28;20461;-69
2023/05/13 05:23:21;;;;;;;7.90;7.60;;;12.00;99.90;;;;;;5107781;28;20461;-68
2023/05/13 05:25:49;;;;;;;7.20;7.00;;;12.10;99.90;;;;;;5108096;28;20506;-69
2023/05/13 05:28:15;;;;;;;8.20;7.90;;;12.20;99.90;;;;;;5109609;28;20457;-68
2023/05/13 05:30:42;;;;;;;8.00;7.70;;;12.30;99.90;;;;;;5105821;27;21098;-69
2023/05/13 05:33:10;;;;;;;7.77;7.47;;;12.40;99.90;;;;;;5105548;27;20460;-69
2023/05/13 05:35:38;;;;;;;7.63;7.37;;;12.50;99.90;;;;;;5109675;28;20544;-69
2023/05/13 05:38:06;;;;;;;8.40;8.00;;;12.50;99.90;;;;;;5098175;28;20470;-69
2023/05/13 05:40:35;;;;;;;8.60;8.20;;;12.50;99.90;;;;;;5099121;27;20522;-69
2023/05/13 05:43:02;;;;;;;8.43;8.03;;;12.60;99.90;;;;;;5099800;28;20473;-69
2023/05/13 05:45:29;;;;;;;8.00;7.70;;;12.60;99.90;;;;;;5100438;28;20463;-70
2023/05/13 05:47:56;;;;;;;9.53;8.93;;;12.60;99.90;;;;;;5106019;27;20600;-69
2023/05/13 05:50:23;;;;;;;8.47;8.17;;;12.60;99.90;;;;;;5101023;27;21143;-69
2023/05/13 05:52:50;;;;;;;6.23;6.03;;;12.60;99.90;;;;;;5107143;28;20460;-69
2023/05/13 05:55:16;;;;;;;9.53;8.67;;;12.60;99.90;;;;;;5105695;28;20469;-70
2023/05/13 05:57:45;;;;;;;6.80;6.60;;;12.60;99.90;;;;;;5104281;27;20461;-68
2023/05/13 06:00:13;;;;;;;6.87;6.53;;;12.60;99.90;;;;;;5107220;28;21115;-69
2023/05/13 06:02:40;;;;;;;6.80;6.50;;;12.60;99.90;;;;;;5104282;28;20457;-69
2023/05/13 06:05:09;;;;;;;6.43;6.23;;;12.70;99.90;;;;;;5104363;28;20497;-69
2023/05/13 06:07:35;;;;;;;5.90;5.70;;;12.70;99.90;;;;;;5098842;27;20476;-71
2023/05/13 06:10:02;;;;;;;7.87;7.23;;;12.80;99.90;;;;;;5104743;28;20464;-70
2023/05/13 06:12:29;;;;;;;7.27;6.97;;;12.90;99.90;;;;;;5098118;28;20609;-70
2023/05/13 06:14:57;;;;;;;6.10;5.90;;;13.00;99.90;;;;;;5099387;27;20468;-69
2023/05/13 06:17:25;;;;;;;7.37;7.07;;;13.20;99.90;;;;;;5104415;28;20453;-70
2023/05/13 06:19:53;;;;;;;6.87;6.67;;;13.30;99.90;;;;;;5106326;28;20484;-70
2023/05/13 06:22:19;;;;;;;6.93;6.73;;;13.50;99.90;;;;;;5098290;27;20828;-70
2023/05/13 06:24:46;;;;;;;7.43;7.10;;;13.70;99.90;;;;;;5107069;28;20461;-70
2023/05/13 06:27:13;;;;;;;11.00;10.20;;;13.90;99.90;;;;;;5104611;27;20472;-69
2023/05/13 06:29:41;;;;;;;11.07;10.50;;;14.00;99.90;;;;;;5104665;28;20462;-67
2023/05/13 06:32:10;;;;;;;9.17;8.80;;;14.20;99.90;;;;;;5099480;28;20572;-68
2023/05/13 06:34:37;;;;;;;10.97;10.27;;;14.40;99.90;;;;;;5104557;28;20509;-68
2023/05/13 06:37:04;;;;;;;12.00;11.20;;;14.40;99.90;;;;;;5096992;27;20784;-69
2023/05/13 06:39:31;;;;;;;9.97;9.60;;;14.30;99.90;;;;;;5102717;27;20510;-69
2023/05/13 06:41:58;;;;;;;9.80;9.40;;;14.30;99.90;;;;;;5102612;27;20806;-68
2023/05/13 06:44:25;;;;;;;11.70;10.87;;;14.40;99.90;;;;;;5101425;28;20883;-68
2023/05/13 06:46:53;;;;;;;9.50;9.10;;;14.30;99.90;;;;;;5095613;27;20534;-68
2023/05/13 06:49:23;;;;;;;9.53;9.17;;;14.30;99.90;;;;;;5103374;28;20486;-70
2023/05/13 06:51:50;;;;;;;10.70;10.30;;;14.40;99.90;;;;;;5104487;28;20838;-69
2023/05/13 06:54:17;;;;;;;11.73;11.27;;;14.50;99.90;;;;;;5101261;28;20464;-69
2023/05/13 06:56:44;;;;;;;11.70;11.17;;;14.50;99.90;;;;;;5095789;27;20551;-70
2023/05/13 06:59:12;;;;;;;12.00;11.50;;;14.50;99.90;;;;;;5094951;28;20461;-70
2023/05/13 07:01:41;;;;;;;10.97;10.43;;;14.60;99.90;;;;;;5093301;27;20465;-69
2023/05/13 07:04:08;;;;;;;10.87;10.47;;;14.60;99.90;;;;;;5100421;28;20518;-69
2023/05/13 07:06:36;;;;;;;11.47;11.07;;;14.60;99.90;;;;;;5104281;27;20471;-69
2023/05/13 07:09:03;;;;;;;13.03;12.43;;;14.70;99.90;;;;;;5102544;28;20460;-69
2023/05/13 07:11:31;;;;;;;12.77;12.17;;;14.90;99.90;;;;;;5103165;28;20557;-69
2023/05/13 07:13:57;;;;;;;12.90;12.40;;;14.90;99.90;;;;;;5105353;27;20928;-68
2023/05/13 07:16:24;;;;;;;12.50;11.87;;;15.00;99.90;;;;;;5103542;28;20489;-69
2023/05/13 07:18:53;;;;;;;13.90;13.30;;;15.20;99.90;;;;;;5099866;28;20480;-68
2023/05/13 07:21:20;;;;;;;12.70;12.20;;;15.30;99.90;;;;;;5101511;28;20469;-68
2023/05/13 07:23:49;;;;;;;14.67;13.87;;;15.50;99.90;;;;;;5107047;28;20535;-68
2023/05/13 07:26:16;;;;;;;12.57;12.07;;;15.60;99.90;;;;;;5106911;28;20955;-69
2023/05/13 07:28:43;;;;;;;13.60;13.00;;;15.70;99.90;;;;;;5098634;28;20461;-68
2023/05/13 07:31:10;;;;;;;14.10;13.40;;;15.80;99.90;;;;;;5102208;28;20484;-66
2023/05/13 07:33:36;;;;;;;13.03;12.43;;;15.90;99.90;;;;;;5105245;28;20449;-68
2023/05/13 07:36:05;;;;;;;14.50;13.80;;;16.10;99.90;;;;;;5100990;28;21002;-68
2023/05/13 07:38:31;;;;;;;15.93;15.13;;;16.20;99.90;;;;;;5097831;28;20558;-67
2023/05/13 07:41:00;;;;;;;15.60;14.80;;;16.30;99.90;;;;;;5101508;28;20464;-68
2023/05/13 07:43:28;;;;;;;14.10;13.47;;;16.50;99.90;;;;;;5097894;28;20469;-68
2023/05/13 07:45:55;;;;;;;15.47;14.67;;;16.60;99.90;;;;;;5100509;28;20474;-69
2023/05/13 07:48:24;;;;;;;13.70;13.00;;;16.60;99.90;;;;;;5096510;28;20486;-68
2023/05/13 07:50:51;;;;;;;13.33;12.73;;;16.60;99.90;;;;;;5085492;28;20861;-69
2023/05/13 07:53:20;;;;;;;13.50;12.90;;;16.70;99.90;;;;;;5082361;28;20964;-68
2023/05/13 07:55:47;;;;;;;14.00;13.30;;;16.80;99.90;;;;;;5090103;28;20460;-69
2023/05/13 07:58:17;;;;;;;14.00;13.40;;;16.90;99.90;;;;;;5092496;28;20468;-68
2023/05/13 08:00:45;;;;;;;15.27;14.57;;;17.00;99.90;;;;;;5085380;28;20815;-69
2023/05/13 08:03:12;;;;;;;13.70;13.10;;;17.10;99.90;;;;;;5086459;28;20869;-69
2023/05/13 08:05:38;;;;;;;12.93;12.43;;;17.30;99.90;;;;;;5082589;28;20462;-67
2023/05/13 08:08:06;;;;;;;15.77;14.93;;;17.40;99.90;;;;;;5088992;28;20948;-67
2023/05/13 08:10:34;;;;;;;15.13;14.43;;;17.50;99.90;;;;;;5097852;28;20462;-67
2023/05/13 08:13:01;;;;;;;13.20;12.70;;;17.50;99.90;;;;;;5102043;28;20453;-66
2023/05/13 08:15:30;;;;;;;13.23;12.73;;;17.60;99.90;;;;;;5090016;28;20954;-70
2023/05/13 08:17:57;;;;;;;12.97;12.47;;;17.80;99.90;;;;;;5082997;28;20486;-67
2023/05/13 08:20:28;;;;;;;14.90;14.30;;;18.00;99.90;;;;;;5089449;28;20470;-67
2023/05/13 08:22:56;;;;;;;15.10;14.30;;;18.30;99.90;;;;;;5072541;28;20451;-67
2023/05/13 08:25:23;;;;;;;13.70;13.10;;;19.00;99.90;;;;;;5099734;28;20448;-68
2023/05/13 08:27:50;;;;;;;14.03;13.43;;;19.80;99.90;;;;;;5085545;28;20465;-68
2023/05/13 08:30:17;;;;;;;13.97;13.37;;;20.70;99.90;;;;;;5088223;28;20617;-69
2023/05/13 08:32:46;;;;;;;14.27;13.67;;;21.30;99.90;;;;;;5086363;28;20517;-68
2023/05/13 08:35:13;;;;;;;14.00;13.40;;;22.20;99.90;;;;;;5080041;28;20496;-69
2023/05/13 08:37:40;;;;;;;14.60;13.93;;;22.40;99.90;;;;;;5091788;28;20450;-68
2023/05/13 08:40:10;;;;;;;13.70;13.20;;;22.50;99.90;;;;;;5084740;28;20464;-68
2023/05/13 08:42:39;;;;;;;13.50;13.00;;;22.50;99.90;;;;;;5087199;28;20656;-69
2023/05/13 08:45:09;;;;;;;13.50;13.00;;;23.20;99.90;;;;;;5080158;28;20542;-69
2023/05/13 08:47:43;;;;;;;14.67;13.83;;;23.70;99.90;;;;;;5091174;28;20572;-69
2023/05/13 08:50:13;;;;;;;17.43;15.70;;;23.80;99.90;;;;;;5080083;28;20829;-69
2023/05/13 08:52:40;;;;;;;15.30;14.50;;;23.80;99.90;;;;;;5075294;28;20491;-70
2023/05/13 08:55:08;;;;;;;14.30;13.70;;;23.20;99.90;;;;;;5098409;28;20908;-69
2023/05/13 08:57:35;;;;;;;14.10;13.50;;;23.80;99.90;;;;;;5088236;28;20538;-69
2023/05/13 09:00:04;;;;;;;14.30;13.70;;;24.40;99.90;;;;;;5094736;28;20458;-69
2023/05/13 09:02:32;;;;;;;14.73;14.13;;;24.70;99.90;;;;;;5079619;28;20465;-69
2023/05/13 09:05:02;;;;;;;13.50;13.00;;;24.20;99.90;;;;;;5091650;28;20992;-69
2023/05/13 09:07:31;;;;;;;14.37;13.77;;;24.00;99.90;;;;;;5091033;28;21056;-68
2023/05/13 09:09:59;;;;;;;14.40;13.80;;;23.30;99.90;;;;;;5086969;28;20823;-70
2023/05/13 09:12:42;;;;;;;46.90;15.20;;;23.00;99.90;;;;;;5096223;28;21086;-69
2023/05/13 09:15:10;;;;;;;14.80;14.20;;;22.40;99.90;;;;;;5094789;28;20458;-68
2023/05/13 09:17:38;;;;;;;31.90;15.53;;;22.70;99.90;;;;;;5088808;28;20457;-70
2023/05/13 09:20:09;;;;;;;14.43;13.83;;;23.60;99.90;;;;;;5089826;28;20793;-69
2023/05/13 09:22:41;;;;;;;14.77;14.07;;;24.10;99.90;;;;;;5081606;28;20461;-69
2023/05/13 09:25:13;;;;;;;15.37;14.73;;;24.10;99.90;;;;;;5081076;28;20462;-68
2023/05/13 09:27:42;;;;;;;15.67;15.07;;;24.90;99.90;;;;;;5090651;28;20548;-69
2023/05/13 09:30:11;;;;;;;15.03;14.43;;;25.40;99.90;;;;;;5081573;28;20462;-68
2023/05/13 09:32:38;;;;;;;14.83;14.20;;;25.30;99.90;;;;;;5086189;28;20478;-69
2023/05/13 09:35:15;;;;;;;14.70;14.10;;;25.90;98.30;;;;;;5084523;28;20468;-69
2023/05/13 09:37:44;;;;;;;15.00;14.40;;;26.70;97.00;;;;;;5093466;28;20568;-69
2023/05/13 09:40:12;;;;;;;14.97;14.37;;;26.60;98.90;;;;;;5075207;28;20467;-68
2023/05/13 09:42:42;;;;;;;16.33;15.63;;;26.70;97.80;;;;;;5078772;28;20551;-68
2023/05/13 09:45:10;;;;;;;16.33;15.63;;;25.90;97.70;;;;;;5085617;28;20517;-68
2023/05/13 09:47:37;;;;;;;16.20;15.50;;;25.20;98.60;;;;;;5096305;28;20489;-69
2023/05/13 09:50:05;;;;;;;20.57;19.27;;;25.40;99.30;;;;;;5085174;28;20858;-68
2023/05/13 09:52:33;;;;;;;14.90;14.30;;;25.40;98.90;;;;;;5083541;28;20482;-68
2023/05/13 09:55:04;;;;;;;14.90;14.30;;;25.60;98.80;;;;;;5078745;28;21330;-68
2023/05/13 09:57:31;;;;;;;15.93;15.23;;;26.30;99.40;;;;;;5088391;28;20485;-69
2023/05/13 09:59:59;;;;;;;15.60;15.00;;;27.30;98.00;;;;;;5071163;28;20543;-69
2023/05/13 10:02:27;;;;;;;17.47;16.63;;;27.50;96.40;;;;;;5085277;28;20461;-68
2023/05/13 10:04:55;;;;;;;18.57;17.00;;;27.40;95.90;;;;;;5078330;28;20550;-68
2023/05/13 10:07:24;;;;;;;17.43;16.57;;;27.60;94.40;;;;;;5082998;28;20454;-69
2023/05/13 10:09:54;;;;;;;16.53;15.80;;;28.10;91.80;;;;;;5080699;28;20481;-68
2023/05/13 10:12:24;;;;;;;17.87;16.87;;;28.00;88.80;;;;;;5085783;28;20597;-68
2023/05/13 10:14:51;;;;;;;16.37;15.67;;;27.70;88.80;;;;;;5073512;28;20461;-68
2023/05/13 10:17:21;;;;;;;16.63;15.93;;;28.20;89.70;;;;;;5087649;28;21032;-68
2023/05/13 10:19:51;;;;;;;16.20;15.50;;;28.30;84.90;;;;;;5080743;28;20513;-68
2023/05/13 10:22:26;;;;;;;16.23;15.50;;;28.30;80.20;;;;;;5084249;28;20474;-68
2023/05/13 10:24:54;;;;;;;17.60;16.80;;;28.10;80.10;;;;;;5082001;28;20853;-68
2023/05/13 10:27:26;;;;;;;15.87;15.17;;;28.40;76.30;;;;;;5082321;28;20481;-69
2023/05/13 10:29:55;;;;;;;17.03;16.23;;;28.90;74.20;;;;;;5076175;28;20493;-69
2023/05/13 10:32:24;;;;;;;18.90;17.07;;;28.30;69.90;;;;;;5078226;28;20470;-70
2023/05/13 10:34:53;;;;;;;17.67;16.70;;;28.10;70.70;;;;;;5078989;28;20501;-70
2023/05/13 10:37:33;;;;;;;17.13;16.33;;;28.30;71.50;;;;;;5085384;28;20462;-68
2023/05/13 10:40:17;;;;;;;15.87;15.17;;;27.70;72.90;;;;;;5086049;28;20952;-70
2023/05/13 10:42:52;;;;;;;15.90;15.20;;;27.20;70.70;;;;;;5082446;28;20906;-70
2023/05/13 10:45:19;;;;;;;16.20;15.40;;;27.40;73.20;;;;;;5075853;28;20454;-70
2023/05/13 10:47:50;;;;;;;18.33;16.83;;;27.40;74.10;;;;;;5086016;27;20485;-70
2023/05/13 10:50:24;;;;;;;20.83;16.73;;;27.30;73.60;;;;;;5099004;28;20899;-69
2023/05/13 10:52:54;;;;;;;16.43;15.63;;;27.10;71.10;;;;;;5104946;28;20464;-70
2023/05/13 10:55:21;;;;;;;15.53;14.83;;;27.30;70.60;;;;;;5101993;28;20456;-70
2023/05/13 10:58:09;;;;;;;16.50;15.70;;;27.30;72.00;;;;;;5101121;28;20538;-70
2023/05/13 11:00:37;;;;;;;16.93;16.13;;;27.80;74.70;;;;;;5099665;28;20560;-70
2023/05/13 11:03:15;;;;;;;16.43;15.63;;;27.90;69.60;;;;;;5095269;27;20489;-70
2023/05/13 11:05:45;;;;;;;17.03;16.23;;;27.70;70.60;;;;;;5102209;28;20461;-71
2023/05/13 11:08:11;;;;;;;17.00;16.10;;;28.00;71.10;;;;;;5107367;28;20470;-69
2023/05/13 11:10:41;;;;;;;16.57;15.83;;;27.70;70.60;;;;;;5106151;28;20492;-68
2023/05/13 11:13:21;;;;;;;15.73;15.03;;;28.20;69.30;;;;;;5101358;28;20844;-69
2023/05/13 11:15:50;;;;;;;16.47;15.67;;;28.50;67.40;;;;;;5095227;28;20453;-69
2023/05/13 11:18:17;;;;;;;16.40;15.50;;;27.90;65.90;;;;;;5099768;28;20652;-68
2023/05/13 11:20:47;;;;;;;16.40;15.60;;;27.80;69.90;;;;;;5102851;28;20838;-70
2023/05/13 11:23:18;;;;;;;17.13;16.03;;;28.40;65.90;;;;;;5096476;28;21066;-69
2023/05/13 11:25:46;;;;;;;16.53;15.73;;;28.70;64.50;;;;;;5104277;28;20467;-69
2023/05/13 11:28:18;;;;;;;15.87;15.17;;;28.10;64.30;;;;;;5102750;28;20453;-69
2023/05/13 11:30:54;;;;;;;17.07;16.00;;;27.90;67.10;;;;;;5100649;28;20569;-69
2023/05/13 11:33:21;;;;;;;16.47;15.67;;;28.50;66.70;;;;;;5092064;28;20549;-69
2023/05/13 11:35:56;;;;;;;16.30;15.60;;;28.80;65.90;;;;;;5104174;28;20754;-69
2023/05/13 11:38:24;;;;;;;16.90;15.97;;;29.70;64.10;;;;;;5102636;28;20953;-68
2023/05/13 11:40:52;;;;;;;16.60;15.60;;;29.50;63.40;;;;;;5092944;28;20507;-69
2023/05/13 11:43:23;;;;;;;16.80;15.67;;;29.90;64.10;;;;;;5094875;28;20519;-68
2023/05/13 11:45:52;;;;;;;15.07;14.40;;;29.10;60.30;;;;;;5105024;28;20464;-68
2023/05/13 11:48:20;;;;;;;17.20;16.30;;;28.70;64.20;;;;;;5098505;28;20477;-68
2023/05/13 11:50:46;;;;;;;16.53;15.73;;;28.40;62.50;;;;;;5106428;28;20462;-68
2023/05/13 11:53:21;;;;;;;15.30;14.60;;;27.20;62.60;;;;;;5099068;28;20458;-68
2023/05/13 11:55:48;;;;;;;17.27;15.83;;;26.90;66.70;;;;;;5104346;28;20823;-68
2023/05/13 11:58:15;;;;;;;17.33;15.37;;;27.90;62.60;;;;;;5103892;28;20960;-69
2023/05/13 12:00:43;;;;;;;16.10;15.30;;;27.90;61.70;;;;;;5102123;28;20457;-68
2023/05/13 12:03:14;;;;;;;16.30;15.47;;;27.70;59.40;;;;;;5104084;28;20858;-68
2023/05/13 12:05:42;;;;;;;16.60;15.80;;;27.50;59.10;;;;;;5105835;28;20936;-68
2023/05/13 12:08:11;;;;;;;17.70;16.43;;;28.30;59.20;;;;;;5098712;28;20457;-69
2023/05/13 12:10:43;;;;;;;15.47;14.77;;;28.50;58.40;;;;;;5101876;28;20465;-68
2023/05/13 12:13:10;;;;;;;16.60;15.80;;;29.10;58.70;;;;;;5099303;28;20536;-68
2023/05/13 12:15:37;;;;;;;15.60;14.90;;;29.80;58.50;;;;;;5105713;28;20461;-68
2023/05/13 12:18:06;;;;;;;15.87;15.10;;;28.80;58.80;;;;;;5098677;28;20477;-67
2023/05/13 12:20:33;;;;;;;16.60;15.80;;;28.80;55.80;;;;;;5098985;28;20481;-69
2023/05/13 12:23:01;;;;;;;16.60;15.77;;;28.90;54.90;;;;;;5103254;28;20475;-68
2023/05/13 12:25:43;;;;;;;16.60;15.83;;;29.20;55.60;;;;;;5106597;28;20457;-68
2023/05/13 12:28:15;;;;;;;16.80;16.00;;;29.80;54.90;;;;;;5098076;28;20450;-68
2023/05/13 12:30:43;;;;;;;17.23;16.33;;;29.80;54.00;;;;;;5096077;28;20560;-68
2023/05/13 12:33:17;;;;;;;18.17;16.70;;;30.20;53.40;;;;;;5099589;28;20468;-68
2023/05/13 12:35:47;;;;;;;16.00;15.20;;;30.60;53.50;;;;;;5103000;28;20452;-69
2023/05/13 12:38:17;;;;;;;15.47;14.77;;;31.00;54.60;;;;;;5104821;28;20460;-68
2023/05/13 12:40:44;;;;;;;15.73;15.00;;;31.00;54.00;;;;;;5107171;27;20465;-69
2023/05/13 12:43:12;;;;;;;17.07;15.60;;;30.20;52.70;;;;;;5099870;28;20538;-68
2023/05/13 12:45:43;;;;;;;16.30;15.60;;;30.40;54.00;;;;;;5101784;27;20457;-68